sensor_id;sensor_type;location;lat;lon;timestamp;P1;durP1;ratioP1;P2;durP2;ratioP2
17947;SDS011;9099;47.958;11.366;2022-12-18T00:02:20;32.87;;;16.97;;
17947;SDS011;9099;47.958;11.366;2022-12-18T00:04:47;32.53;;;17.37;;
17947;SDS011;9099;47.958;11.366;2022-12-18T00:07:13;35.57;;;17.70;;
17947;SDS011;9099;47.958;11.366;2022-12-18T00:09:40;32.87;;;17.33;;
17947;SDS011;9099;47.958;11.366;2022-12-18T00:12:07;34.47;;;17.27;;
17947;SDS011;9099;47.958;11.366;2022-12-18T00:14:34;36.43;;;18.43;;
17947;SDS011;9099;47.958;11.366;2022-12-18T00:17:01;36.53;;;17.53;;
17947;SDS011;9099;47.958;11.366;2022-12-18T00:19:29;33.50;;;17.20;;
17947;SDS011;9099;47.958;11.366;2022-12-18T00:21:56;36.23;;;18.10;;
17947;SDS011;9099;47.958;11.366;2022-12-18T00:24:23;37.47;;;18.40;;
17947;SDS011;9099;47.958;11.366;2022-12-18T00:26:50;36.97;;;18.97;;
17947;SDS011;9099;47.958;11.366;2022-12-18T00:29:17;38.90;;;18.40;;
17947;SDS011;9099;47.958;11.366;2022-12-18T00:31:43;36.30;;;18.87;;
17947;SDS011;9099;47.958;11.366;2022-12-18T00:34:11;36.77;;;19.63;;
17947;SDS011;9099;47.958;11.366;2022-12-18T00:36:40;35.90;;;17.77;;
17947;SDS011;9099;47.958;11.366;2022-12-18T00:39:07;40.23;;;20.00;;
17947;SDS011;9099;47.958;11.366;2022-12-18T00:41:34;37.83;;;19.83;;
17947;SDS011;9099;47.958;11.366;2022-12-18T00:44:18;36.63;;;17.27;;
17947;SDS011;9099;47.958;11.366;2022-12-18T00:46:46;33.07;;;17.77;;
17947;SDS011;9099;47.958;11.366;2022-12-18T00:49:14;40.03;;;18.97;;
17947;SDS011;9099;47.958;11.366;2022-12-18T00:51:42;34.17;;;17.97;;
17947;SDS011;9099;47.958;11.366;2022-12-18T00:54:09;32.53;;;15.67;;
17947;SDS011;9099;47.958;11.366;2022-12-18T00:56:37;33.33;;;16.83;;
17947;SDS011;9099;47.958;11.366;2022-12-18T00:59:04;30.83;;;16.80;;
17947;SDS011;9099;47.958;11.366;2022-12-18T01:01:31;31.70;;;16.70;;
17947;SDS011;9099;47.958;11.366;2022-12-18T01:03:59;33.90;;;17.10;;
17947;SDS011;9099;47.958;11.366;2022-12-18T01:06:26;35.07;;;17.87;;
17947;SDS011;9099;47.958;11.366;2022-12-18T01:08:54;36.63;;;17.27;;
17947;SDS011;9099;47.958;11.366;2022-12-18T01:11:21;29.90;;;16.13;;
17947;SDS011;9099;47.958;11.366;2022-12-18T01:13:48;36.67;;;17.97;;
17947;SDS011;9099;47.958;11.366;2022-12-18T01:16:16;34.13;;;17.40;;
17947;SDS011;9099;47.958;11.366;2022-12-18T01:18:43;31.23;;;16.80;;
17947;SDS011;9099;47.958;11.366;2022-12-18T01:21:11;30.27;;;15.90;;
17947;SDS011;9099;47.958;11.366;2022-12-18T01:23:39;29.30;;;14.87;;
17947;SDS011;9099;47.958;11.366;2022-12-18T01:26:11;35.43;;;16.97;;
17947;SDS011;9099;47.958;11.366;2022-12-18T01:28:39;39.77;;;18.37;;
17947;SDS011;9099;47.958;11.366;2022-12-18T01:31:10;37.27;;;17.50;;
17947;SDS011;9099;47.958;11.366;2022-12-18T01:33:38;36.13;;;17.57;;
17947;SDS011;9099;47.958;11.366;2022-12-18T01:36:05;44.67;;;20.43;;
17947;SDS011;9099;47.958;11.366;2022-12-18T01:38:33;41.23;;;18.80;;
17947;SDS011;9099;47.958;11.366;2022-12-18T01:40:59;42.07;;;19.63;;
17947;SDS011;9099;47.958;11.366;2022-12-18T01:43:45;40.10;;;18.37;;
17947;SDS011;9099;47.958;11.366;2022-12-18T01:46:14;36.00;;;17.57;;
17947;SDS011;9099;47.958;11.366;2022-12-18T01:48:42;39.50;;;19.53;;
17947;SDS011;9099;47.958;11.366;2022-12-18T01:51:10;41.40;;;19.50;;
17947;SDS011;9099;47.958;11.366;2022-12-18T01:53:38;38.03;;;17.37;;
17947;SDS011;9099;47.958;11.366;2022-12-18T01:56:07;34.93;;;16.87;;
17947;SDS011;9099;47.958;11.366;2022-12-18T01:58:39;35.87;;;16.30;;
17947;SDS011;9099;47.958;11.366;2022-12-18T02:01:13;37.17;;;17.00;;
17947;SDS011;9099;47.958;11.366;2022-12-18T02:03:40;33.87;;;17.23;;
17947;SDS011;9099;47.958;11.366;2022-12-18T02:06:09;37.53;;;17.27;;
17947;SDS011;9099;47.958;11.366;2022-12-18T02:08:42;39.10;;;17.70;;
17947;SDS011;9099;47.958;11.366;2022-12-18T02:11:15;37.07;;;18.30;;
17947;SDS011;9099;47.958;11.366;2022-12-18T02:13:50;36.17;;;16.40;;
17947;SDS011;9099;47.958;11.366;2022-12-18T02:16:25;39.03;;;17.10;;
17947;SDS011;9099;47.958;11.366;2022-12-18T02:19:01;37.43;;;17.80;;
17947;SDS011;9099;47.958;11.366;2022-12-18T02:21:34;36.80;;;18.03;;
17947;SDS011;9099;47.958;11.366;2022-12-18T02:24:15;40.10;;;18.30;;
17947;SDS011;9099;47.958;11.366;2022-12-18T02:26:49;37.80;;;17.03;;
17947;SDS011;9099;47.958;11.366;2022-12-18T02:29:20;35.43;;;17.33;;
17947;SDS011;9099;47.958;11.366;2022-12-18T02:31:52;42.70;;;19.50;;
17947;SDS011;9099;47.958;11.366;2022-12-18T02:34:26;41.43;;;18.30;;
17947;SDS011;9099;47.958;11.366;2022-12-18T02:36:54;40.73;;;18.60;;
17947;SDS011;9099;47.958;11.366;2022-12-18T02:39:22;37.20;;;17.30;;
17947;SDS011;9099;47.958;11.366;2022-12-18T02:41:54;40.37;;;18.00;;
17947;SDS011;9099;47.958;11.366;2022-12-18T02:44:21;35.10;;;16.77;;
17947;SDS011;9099;47.958;11.366;2022-12-18T02:46:48;40.40;;;18.27;;
17947;SDS011;9099;47.958;11.366;2022-12-18T02:49:21;38.40;;;18.27;;
17947;SDS011;9099;47.958;11.366;2022-12-18T02:52:00;37.30;;;17.00;;
17947;SDS011;9099;47.958;11.366;2022-12-18T02:54:37;37.97;;;16.43;;
17947;SDS011;9099;47.958;11.366;2022-12-18T02:57:18;40.83;;;16.50;;
17947;SDS011;9099;47.958;11.366;2022-12-18T02:59:54;45.50;;;17.70;;
17947;SDS011;9099;47.958;11.366;2022-12-18T03:02:25;36.33;;;16.00;;
17947;SDS011;9099;47.958;11.366;2022-12-18T03:04:59;43.17;;;17.93;;
17947;SDS011;9099;47.958;11.366;2022-12-18T03:07:34;39.33;;;17.23;;
17947;SDS011;9099;47.958;11.366;2022-12-18T03:10:04;38.50;;;16.90;;
17947;SDS011;9099;47.958;11.366;2022-12-18T03:12:35;38.87;;;17.00;;
17947;SDS011;9099;47.958;11.366;2022-12-18T03:15:08;37.10;;;16.27;;
17947;SDS011;9099;47.958;11.366;2022-12-18T03:17:36;38.70;;;16.63;;
17947;SDS011;9099;47.958;11.366;2022-12-18T03:20:07;39.77;;;16.90;;
17947;SDS011;9099;47.958;11.366;2022-12-18T03:22:40;43.50;;;18.20;;
17947;SDS011;9099;47.958;11.366;2022-12-18T03:25:10;38.50;;;16.77;;
17947;SDS011;9099;47.958;11.366;2022-12-18T03:27:41;37.43;;;15.80;;
17947;SDS011;9099;47.958;11.366;2022-12-18T03:30:12;35.40;;;16.90;;
17947;SDS011;9099;47.958;11.366;2022-12-18T03:32:42;34.80;;;15.90;;
17947;SDS011;9099;47.958;11.366;2022-12-18T03:35:13;40.80;;;17.53;;
17947;SDS011;9099;47.958;11.366;2022-12-18T03:37:45;33.03;;;14.67;;
17947;SDS011;9099;47.958;11.366;2022-12-18T03:40:12;34.70;;;16.20;;
17947;SDS011;9099;47.958;11.366;2022-12-18T03:42:42;36.03;;;15.83;;
17947;SDS011;9099;47.958;11.366;2022-12-18T03:45:13;31.10;;;14.90;;
17947;SDS011;9099;47.958;11.366;2022-12-18T03:47:52;33.83;;;16.20;;
17947;SDS011;9099;47.958;11.366;2022-12-18T03:50:26;35.83;;;15.63;;
17947;SDS011;9099;47.958;11.366;2022-12-18T03:53:00;37.17;;;16.40;;
17947;SDS011;9099;47.958;11.366;2022-12-18T03:55:35;38.17;;;16.87;;
17947;SDS011;9099;47.958;11.366;2022-12-18T03:58:04;39.27;;;16.00;;
17947;SDS011;9099;47.958;11.366;2022-12-18T04:00:33;35.03;;;15.63;;
17947;SDS011;9099;47.958;11.366;2022-12-18T04:03:01;34.07;;;15.33;;
17947;SDS011;9099;47.958;11.366;2022-12-18T04:05:29;34.93;;;15.90;;
17947;SDS011;9099;47.958;11.366;2022-12-18T04:07:58;28.23;;;13.53;;
17947;SDS011;9099;47.958;11.366;2022-12-18T04:10:25;34.33;;;16.20;;
17947;SDS011;9099;47.958;11.366;2022-12-18T04:12:52;35.03;;;14.77;;
17947;SDS011;9099;47.958;11.366;2022-12-18T04:15:23;30.97;;;15.03;;
17947;SDS011;9099;47.958;11.366;2022-12-18T04:17:50;32.83;;;15.10;;
17947;SDS011;9099;47.958;11.366;2022-12-18T04:20:17;29.93;;;14.27;;
17947;SDS011;9099;47.958;11.366;2022-12-18T04:22:44;33.17;;;14.80;;
17947;SDS011;9099;47.958;11.366;2022-12-18T04:25:11;38.00;;;16.30;;
17947;SDS011;9099;47.958;11.366;2022-12-18T04:27:38;33.30;;;16.07;;
17947;SDS011;9099;47.958;11.366;2022-12-18T04:30:05;38.80;;;15.80;;
17947;SDS011;9099;47.958;11.366;2022-12-18T04:32:34;33.30;;;14.70;;
17947;SDS011;9099;47.958;11.366;2022-12-18T04:35:01;34.87;;;15.13;;
17947;SDS011;9099;47.958;11.366;2022-12-18T04:37:29;32.93;;;15.60;;
17947;SDS011;9099;47.958;11.366;2022-12-18T04:39:56;35.57;;;15.27;;
17947;SDS011;9099;47.958;11.366;2022-12-18T04:42:22;33.37;;;15.63;;
17947;SDS011;9099;47.958;11.366;2022-12-18T04:44:49;31.30;;;14.80;;
17947;SDS011;9099;47.958;11.366;2022-12-18T04:47:16;33.93;;;15.33;;
17947;SDS011;9099;47.958;11.366;2022-12-18T04:49:44;30.43;;;14.53;;
17947;SDS011;9099;47.958;11.366;2022-12-18T04:52:11;34.43;;;15.83;;
17947;SDS011;9099;47.958;11.366;2022-12-18T04:54:38;31.83;;;14.83;;
17947;SDS011;9099;47.958;11.366;2022-12-18T04:57:05;40.33;;;17.13;;
17947;SDS011;9099;47.958;11.366;2022-12-18T04:59:31;36.23;;;16.00;;
17947;SDS011;9099;47.958;11.366;2022-12-18T05:01:58;36.13;;;16.47;;
17947;SDS011;9099;47.958;11.366;2022-12-18T05:04:25;30.33;;;14.07;;
17947;SDS011;9099;47.958;11.366;2022-12-18T05:06:53;31.00;;;15.37;;
17947;SDS011;9099;47.958;11.366;2022-12-18T05:09:20;36.30;;;17.00;;
17947;SDS011;9099;47.958;11.366;2022-12-18T05:11:47;37.33;;;16.60;;
17947;SDS011;9099;47.958;11.366;2022-12-18T05:14:14;28.93;;;14.70;;
17947;SDS011;9099;47.958;11.366;2022-12-18T05:16:41;35.10;;;14.87;;
17947;SDS011;9099;47.958;11.366;2022-12-18T05:19:08;37.17;;;17.20;;
17947;SDS011;9099;47.958;11.366;2022-12-18T05:21:34;36.17;;;16.83;;
17947;SDS011;9099;47.958;11.366;2022-12-18T05:24:03;38.13;;;15.87;;
17947;SDS011;9099;47.958;11.366;2022-12-18T05:26:30;31.87;;;14.67;;
17947;SDS011;9099;47.958;11.366;2022-12-18T05:28:57;36.80;;;16.97;;
17947;SDS011;9099;47.958;11.366;2022-12-18T05:31:24;35.90;;;16.77;;
17947;SDS011;9099;47.958;11.366;2022-12-18T05:33:51;36.37;;;16.50;;
17947;SDS011;9099;47.958;11.366;2022-12-18T05:36:18;40.40;;;18.10;;
17947;SDS011;9099;47.958;11.366;2022-12-18T05:38:44;37.37;;;15.80;;
17947;SDS011;9099;47.958;11.366;2022-12-18T05:41:12;34.17;;;16.77;;
17947;SDS011;9099;47.958;11.366;2022-12-18T05:43:39;38.73;;;16.80;;
17947;SDS011;9099;47.958;11.366;2022-12-18T05:46:07;37.73;;;16.67;;
17947;SDS011;9099;47.958;11.366;2022-12-18T05:48:37;35.53;;;15.73;;
17947;SDS011;9099;47.958;11.366;2022-12-18T05:51:04;36.70;;;16.40;;
17947;SDS011;9099;47.958;11.366;2022-12-18T05:53:32;33.43;;;15.93;;
17947;SDS011;9099;47.958;11.366;2022-12-18T05:56:00;38.67;;;16.80;;
17947;SDS011;9099;47.958;11.366;2022-12-18T05:58:29;32.87;;;15.20;;
17947;SDS011;9099;47.958;11.366;2022-12-18T06:00:56;36.60;;;16.20;;
17947;SDS011;9099;47.958;11.366;2022-12-18T06:03:24;35.53;;;16.80;;
17947;SDS011;9099;47.958;11.366;2022-12-18T06:05:51;47.03;;;18.23;;
17947;SDS011;9099;47.958;11.366;2022-12-18T06:08:18;44.17;;;18.77;;
17947;SDS011;9099;47.958;11.366;2022-12-18T06:10:49;37.13;;;17.27;;
17947;SDS011;9099;47.958;11.366;2022-12-18T06:13:17;35.20;;;16.47;;
17947;SDS011;9099;47.958;11.366;2022-12-18T06:15:46;38.87;;;17.53;;
17947;SDS011;9099;47.958;11.366;2022-12-18T06:18:13;33.57;;;15.47;;
17947;SDS011;9099;47.958;11.366;2022-12-18T06:20:40;33.87;;;15.50;;
17947;SDS011;9099;47.958;11.366;2022-12-18T06:23:07;31.93;;;15.27;;
17947;SDS011;9099;47.958;11.366;2022-12-18T06:25:36;35.30;;;15.97;;
17947;SDS011;9099;47.958;11.366;2022-12-18T06:28:04;33.77;;;15.33;;
17947;SDS011;9099;47.958;11.366;2022-12-18T06:30:31;31.43;;;14.90;;
17947;SDS011;9099;47.958;11.366;2022-12-18T06:32:59;45.97;;;17.20;;
17947;SDS011;9099;47.958;11.366;2022-12-18T06:35:26;32.83;;;15.50;;
17947;SDS011;9099;47.958;11.366;2022-12-18T06:37:53;36.23;;;16.00;;
17947;SDS011;9099;47.958;11.366;2022-12-18T06:40:20;37.43;;;16.87;;
17947;SDS011;9099;47.958;11.366;2022-12-18T06:42:47;35.53;;;16.20;;
17947;SDS011;9099;47.958;11.366;2022-12-18T06:45:14;38.50;;;16.23;;
17947;SDS011;9099;47.958;11.366;2022-12-18T06:47:41;32.80;;;15.30;;
17947;SDS011;9099;47.958;11.366;2022-12-18T06:50:09;33.23;;;15.73;;
17947;SDS011;9099;47.958;11.366;2022-12-18T06:52:36;33.70;;;15.93;;
17947;SDS011;9099;47.958;11.366;2022-12-18T06:55:04;37.63;;;16.70;;
17947;SDS011;9099;47.958;11.366;2022-12-18T06:57:32;31.90;;;15.27;;
17947;SDS011;9099;47.958;11.366;2022-12-18T06:59:58;27.90;;;14.13;;
17947;SDS011;9099;47.958;11.366;2022-12-18T07:02:25;33.90;;;15.60;;
17947;SDS011;9099;47.958;11.366;2022-12-18T07:04:52;34.17;;;15.70;;
17947;SDS011;9099;47.958;11.366;2022-12-18T07:07:20;37.57;;;17.03;;
17947;SDS011;9099;47.958;11.366;2022-12-18T07:09:48;33.80;;;15.80;;
17947;SDS011;9099;47.958;11.366;2022-12-18T07:12:16;34.03;;;16.60;;
17947;SDS011;9099;47.958;11.366;2022-12-18T07:14:43;35.30;;;15.57;;
17947;SDS011;9099;47.958;11.366;2022-12-18T07:17:10;33.17;;;15.53;;
17947;SDS011;9099;47.958;11.366;2022-12-18T07:19:37;36.30;;;16.13;;
17947;SDS011;9099;47.958;11.366;2022-12-18T07:22:03;29.13;;;14.43;;
17947;SDS011;9099;47.958;11.366;2022-12-18T07:24:33;30.80;;;14.80;;
17947;SDS011;9099;47.958;11.366;2022-12-18T07:27:00;33.23;;;14.90;;
17947;SDS011;9099;47.958;11.366;2022-12-18T07:29:27;25.80;;;13.77;;
17947;SDS011;9099;47.958;11.366;2022-12-18T07:31:54;33.83;;;14.97;;
17947;SDS011;9099;47.958;11.366;2022-12-18T07:34:20;31.80;;;15.53;;
17947;SDS011;9099;47.958;11.366;2022-12-18T07:36:47;31.43;;;15.30;;
17947;SDS011;9099;47.958;11.366;2022-12-18T07:39:14;25.93;;;13.97;;
17947;SDS011;9099;47.958;11.366;2022-12-18T07:41:42;28.40;;;13.60;;
17947;SDS011;9099;47.958;11.366;2022-12-18T07:44:29;28.93;;;14.77;;
17947;SDS011;9099;47.958;11.366;2022-12-18T07:46:56;29.20;;;13.53;;
17947;SDS011;9099;47.958;11.366;2022-12-18T07:49:23;31.33;;;14.60;;
17947;SDS011;9099;47.958;11.366;2022-12-18T07:51:49;32.67;;;14.43;;
17947;SDS011;9099;47.958;11.366;2022-12-18T07:54:16;32.40;;;14.90;;
17947;SDS011;9099;47.958;11.366;2022-12-18T07:56:44;32.67;;;15.77;;
17947;SDS011;9099;47.958;11.366;2022-12-18T07:59:11;32.40;;;15.33;;
17947;SDS011;9099;47.958;11.366;2022-12-18T08:01:38;31.07;;;15.60;;
17947;SDS011;9099;47.958;11.366;2022-12-18T08:04:05;30.13;;;15.13;;
17947;SDS011;9099;47.958;11.366;2022-12-18T08:06:32;32.73;;;14.33;;
17947;SDS011;9099;47.958;11.366;2022-12-18T08:08:59;27.53;;;14.03;;
17947;SDS011;9099;47.958;11.366;2022-12-18T08:11:26;27.53;;;13.83;;
17947;SDS011;9099;47.958;11.366;2022-12-18T08:13:55;30.73;;;14.63;;
17947;SDS011;9099;47.958;11.366;2022-12-18T08:16:22;31.40;;;13.97;;
17947;SDS011;9099;47.958;11.366;2022-12-18T08:18:50;29.87;;;14.83;;
17947;SDS011;9099;47.958;11.366;2022-12-18T08:21:19;31.40;;;15.13;;
17947;SDS011;9099;47.958;11.366;2022-12-18T08:23:48;30.50;;;14.90;;
17947;SDS011;9099;47.958;11.366;2022-12-18T08:26:15;25.90;;;13.40;;
17947;SDS011;9099;47.958;11.366;2022-12-18T08:28:42;31.80;;;15.00;;
17947;SDS011;9099;47.958;11.366;2022-12-18T08:31:11;26.93;;;14.07;;
17947;SDS011;9099;47.958;11.366;2022-12-18T08:33:38;26.70;;;13.93;;
17947;SDS011;9099;47.958;11.366;2022-12-18T08:36:05;28.27;;;14.07;;
17947;SDS011;9099;47.958;11.366;2022-12-18T08:38:32;24.70;;;13.27;;
17947;SDS011;9099;47.958;11.366;2022-12-18T08:40:59;26.17;;;13.10;;
17947;SDS011;9099;47.958;11.366;2022-12-18T08:43:27;26.53;;;13.30;;
17947;SDS011;9099;47.958;11.366;2022-12-18T08:46:13;23.60;;;12.57;;
17947;SDS011;9099;47.958;11.366;2022-12-18T08:48:40;24.97;;;12.83;;
17947;SDS011;9099;47.958;11.366;2022-12-18T08:51:07;30.13;;;14.83;;
17947;SDS011;9099;47.958;11.366;2022-12-18T08:53:35;25.97;;;14.23;;
17947;SDS011;9099;47.958;11.366;2022-12-18T08:56:02;25.83;;;13.40;;
17947;SDS011;9099;47.958;11.366;2022-12-18T08:58:29;24.70;;;13.33;;
17947;SDS011;9099;47.958;11.366;2022-12-18T09:00:59;25.03;;;12.67;;
17947;SDS011;9099;47.958;11.366;2022-12-18T09:03:28;29.87;;;14.43;;
17947;SDS011;9099;47.958;11.366;2022-12-18T09:05:55;25.87;;;13.13;;
17947;SDS011;9099;47.958;11.366;2022-12-18T09:08:22;28.37;;;14.30;;
17947;SDS011;9099;47.958;11.366;2022-12-18T09:10:49;25.10;;;13.47;;
17947;SDS011;9099;47.958;11.366;2022-12-18T09:13:16;24.60;;;13.73;;
17947;SDS011;9099;47.958;11.366;2022-12-18T09:15:44;25.70;;;13.60;;
17947;SDS011;9099;47.958;11.366;2022-12-18T09:18:12;25.70;;;14.40;;
17947;SDS011;9099;47.958;11.366;2022-12-18T09:20:41;28.10;;;13.30;;
17947;SDS011;9099;47.958;11.366;2022-12-18T09:23:08;24.83;;;13.33;;
17947;SDS011;9099;47.958;11.366;2022-12-18T09:25:35;25.00;;;13.93;;
17947;SDS011;9099;47.958;11.366;2022-12-18T09:28:02;25.83;;;13.37;;
17947;SDS011;9099;47.958;11.366;2022-12-18T09:30:31;28.93;;;14.67;;
17947;SDS011;9099;47.958;11.366;2022-12-18T09:32:59;24.03;;;13.33;;
17947;SDS011;9099;47.958;11.366;2022-12-18T09:35:26;28.23;;;14.07;;
17947;SDS011;9099;47.958;11.366;2022-12-18T09:37:55;25.17;;;12.77;;
17947;SDS011;9099;47.958;11.366;2022-12-18T09:40:22;23.30;;;13.23;;
17947;SDS011;9099;47.958;11.366;2022-12-18T09:42:53;27.57;;;13.60;;
17947;SDS011;9099;47.958;11.366;2022-12-18T09:45:23;24.80;;;13.53;;
17947;SDS011;9099;47.958;11.366;2022-12-18T09:47:51;29.20;;;14.20;;
17947;SDS011;9099;47.958;11.366;2022-12-18T09:50:22;24.73;;;12.87;;
17947;SDS011;9099;47.958;11.366;2022-12-18T09:52:57;24.93;;;13.83;;
17947;SDS011;9099;47.958;11.366;2022-12-18T09:55:30;25.30;;;13.37;;
17947;SDS011;9099;47.958;11.366;2022-12-18T09:58:00;28.73;;;15.27;;
17947;SDS011;9099;47.958;11.366;2022-12-18T10:00:32;27.83;;;15.17;;
17947;SDS011;9099;47.958;11.366;2022-12-18T10:03:00;26.17;;;13.67;;
17947;SDS011;9099;47.958;11.366;2022-12-18T10:05:31;21.80;;;12.70;;
17947;SDS011;9099;47.958;11.366;2022-12-18T10:08:06;26.60;;;14.17;;
17947;SDS011;9099;47.958;11.366;2022-12-18T10:10:40;26.13;;;13.40;;
17947;SDS011;9099;47.958;11.366;2022-12-18T10:13:15;29.70;;;15.10;;
17947;SDS011;9099;47.958;11.366;2022-12-18T10:15:53;23.83;;;12.93;;
17947;SDS011;9099;47.958;11.366;2022-12-18T10:18:32;25.37;;;13.47;;
17947;SDS011;9099;47.958;11.366;2022-12-18T10:21:08;25.70;;;13.90;;
17947;SDS011;9099;47.958;11.366;2022-12-18T10:23:41;26.30;;;13.97;;
17947;SDS011;9099;47.958;11.366;2022-12-18T10:26:17;27.07;;;14.10;;
17947;SDS011;9099;47.958;11.366;2022-12-18T10:28:44;24.80;;;13.97;;
17947;SDS011;9099;47.958;11.366;2022-12-18T10:31:12;27.13;;;13.43;;
17947;SDS011;9099;47.958;11.366;2022-12-18T10:33:43;33.17;;;16.73;;
17947;SDS011;9099;47.958;11.366;2022-12-18T10:36:10;28.93;;;14.57;;
17947;SDS011;9099;47.958;11.366;2022-12-18T10:38:37;23.93;;;12.80;;
17947;SDS011;9099;47.958;11.366;2022-12-18T10:41:08;26.33;;;13.80;;
17947;SDS011;9099;47.958;11.366;2022-12-18T10:43:52;24.00;;;12.63;;
17947;SDS011;9099;47.958;11.366;2022-12-18T10:46:38;24.50;;;12.43;;
17947;SDS011;9099;47.958;11.366;2022-12-18T10:49:05;24.23;;;12.77;;
17947;SDS011;9099;47.958;11.366;2022-12-18T10:51:44;22.73;;;12.73;;
17947;SDS011;9099;47.958;11.366;2022-12-18T10:54:14;25.87;;;13.13;;
17947;SDS011;9099;47.958;11.366;2022-12-18T10:56:44;23.80;;;12.77;;
17947;SDS011;9099;47.958;11.366;2022-12-18T10:59:11;22.97;;;12.43;;
17947;SDS011;9099;47.958;11.366;2022-12-18T11:01:46;23.40;;;13.57;;
17947;SDS011;9099;47.958;11.366;2022-12-18T11:04:16;22.20;;;11.87;;
17947;SDS011;9099;47.958;11.366;2022-12-18T11:06:56;25.70;;;13.80;;
17947;SDS011;9099;47.958;11.366;2022-12-18T11:09:25;23.60;;;12.80;;
17947;SDS011;9099;47.958;11.366;2022-12-18T11:11:55;21.07;;;11.20;;
17947;SDS011;9099;47.958;11.366;2022-12-18T11:14:25;22.57;;;13.20;;
17947;SDS011;9099;47.958;11.366;2022-12-18T11:16:53;23.73;;;12.87;;
17947;SDS011;9099;47.958;11.366;2022-12-18T11:19:26;23.53;;;13.40;;
17947;SDS011;9099;47.958;11.366;2022-12-18T11:21:57;20.60;;;11.90;;
17947;SDS011;9099;47.958;11.366;2022-12-18T11:24:27;23.03;;;12.60;;
17947;SDS011;9099;47.958;11.366;2022-12-18T11:26:57;20.73;;;11.60;;
17947;SDS011;9099;47.958;11.366;2022-12-18T11:29:30;22.60;;;12.63;;
17947;SDS011;9099;47.958;11.366;2022-12-18T11:35:10;24.77;;;13.43;;
17947;SDS011;9099;47.958;11.366;2022-12-18T11:37:42;21.93;;;12.63;;
17947;SDS011;9099;47.958;11.366;2022-12-18T11:40:13;21.30;;;12.17;;
17947;SDS011;9099;47.958;11.366;2022-12-18T11:42:48;23.03;;;12.57;;
17947;SDS011;9099;47.958;11.366;2022-12-18T11:45:29;22.20;;;13.07;;
17947;SDS011;9099;47.958;11.366;2022-12-18T11:48:01;22.30;;;13.07;;
17947;SDS011;9099;47.958;11.366;2022-12-18T11:50:31;21.07;;;13.00;;
17947;SDS011;9099;47.958;11.366;2022-12-18T11:53:09;25.10;;;13.40;;
17947;SDS011;9099;47.958;11.366;2022-12-18T11:55:39;22.73;;;13.23;;
17947;SDS011;9099;47.958;11.366;2022-12-18T11:58:17;19.83;;;12.07;;
17947;SDS011;9099;47.958;11.366;2022-12-18T12:00:56;22.87;;;12.77;;
17947;SDS011;9099;47.958;11.366;2022-12-18T12:03:37;22.47;;;12.47;;
17947;SDS011;9099;47.958;11.366;2022-12-18T12:06:16;18.40;;;11.80;;
17947;SDS011;9099;47.958;11.366;2022-12-18T12:08:51;20.70;;;12.13;;
17947;SDS011;9099;47.958;11.366;2022-12-18T12:11:29;19.73;;;12.40;;
17947;SDS011;9099;47.958;11.366;2022-12-18T12:14:14;19.30;;;12.67;;
17947;SDS011;9099;47.958;11.366;2022-12-18T12:16:52;21.47;;;12.03;;
17947;SDS011;9099;47.958;11.366;2022-12-18T12:19:29;21.07;;;12.97;;
17947;SDS011;9099;47.958;11.366;2022-12-18T12:22:06;23.43;;;13.60;;
17947;SDS011;9099;47.958;11.366;2022-12-18T12:24:43;21.93;;;12.53;;
17947;SDS011;9099;47.958;11.366;2022-12-18T12:27:20;21.43;;;12.87;;
17947;SDS011;9099;47.958;11.366;2022-12-18T12:29:58;20.83;;;12.47;;
17947;SDS011;9099;47.958;11.366;2022-12-18T12:32:33;20.30;;;11.87;;
17947;SDS011;9099;47.958;11.366;2022-12-18T12:35:14;21.97;;;13.63;;
17947;SDS011;9099;47.958;11.366;2022-12-18T12:37:54;19.60;;;12.50;;
17947;SDS011;9099;47.958;11.366;2022-12-18T12:40:27;19.77;;;12.63;;
17947;SDS011;9099;47.958;11.366;2022-12-18T12:42:59;20.37;;;12.13;;
17947;SDS011;9099;47.958;11.366;2022-12-18T12:45:40;21.70;;;11.90;;
17947;SDS011;9099;47.958;11.366;2022-12-18T12:48:14;23.73;;;13.80;;
17947;SDS011;9099;47.958;11.366;2022-12-18T12:50:47;21.63;;;12.53;;
17947;SDS011;9099;47.958;11.366;2022-12-18T12:53:18;21.23;;;13.10;;
17947;SDS011;9099;47.958;11.366;2022-12-18T12:55:51;22.23;;;13.93;;
17947;SDS011;9099;47.958;11.366;2022-12-18T12:58:21;23.30;;;13.93;;
17947;SDS011;9099;47.958;11.366;2022-12-18T13:00:58;23.50;;;14.30;;
17947;SDS011;9099;47.958;11.366;2022-12-18T13:03:35;25.07;;;15.53;;
17947;SDS011;9099;47.958;11.366;2022-12-18T13:06:09;22.13;;;13.17;;
17947;SDS011;9099;47.958;11.366;2022-12-18T13:08:53;24.50;;;13.77;;
17947;SDS011;9099;47.958;11.366;2022-12-18T13:11:29;23.17;;;13.63;;
17947;SDS011;9099;47.958;11.366;2022-12-18T13:14:23;24.10;;;13.07;;
17947;SDS011;9099;47.958;11.366;2022-12-18T13:20:02;23.60;;;13.03;;
17947;SDS011;9099;47.958;11.366;2022-12-18T13:22:34;21.10;;;12.27;;
17947;SDS011;9099;47.958;11.366;2022-12-18T13:25:03;21.80;;;13.13;;
17947;SDS011;9099;47.958;11.366;2022-12-18T13:28:03;21.43;;;12.47;;
17947;SDS011;9099;47.958;11.366;2022-12-18T13:36:13;21.47;;;13.37;;
17947;SDS011;9099;47.958;11.366;2022-12-18T13:39:15;23.23;;;13.20;;
17947;SDS011;9099;47.958;11.366;2022-12-18T13:41:51;18.27;;;11.27;;
17947;SDS011;9099;47.958;11.366;2022-12-18T13:44:24;19.90;;;11.40;;
17947;SDS011;9099;47.958;11.366;2022-12-18T13:46:56;19.53;;;12.27;;
17947;SDS011;9099;47.958;11.366;2022-12-18T13:49:34;20.37;;;11.80;;
17947;SDS011;9099;47.958;11.366;2022-12-18T13:52:14;18.40;;;10.40;;
17947;SDS011;9099;47.958;11.366;2022-12-18T13:54:45;22.77;;;13.07;;
17947;SDS011;9099;47.958;11.366;2022-12-18T13:57:27;21.83;;;12.73;;
17947;SDS011;9099;47.958;11.366;2022-12-18T13:59:55;24.03;;;11.73;;
17947;SDS011;9099;47.958;11.366;2022-12-18T14:02:23;23.83;;;12.10;;
17947;SDS011;9099;47.958;11.366;2022-12-18T14:04:51;21.43;;;12.07;;
17947;SDS011;9099;47.958;11.366;2022-12-18T14:07:19;24.00;;;12.67;;
17947;SDS011;9099;47.958;11.366;2022-12-18T14:09:49;29.37;;;15.00;;
17947;SDS011;9099;47.958;11.366;2022-12-18T14:12:18;24.63;;;13.70;;
17947;SDS011;9099;47.958;11.366;2022-12-18T14:15:09;23.77;;;13.33;;
17947;SDS011;9099;47.958;11.366;2022-12-18T14:17:46;26.33;;;13.00;;
17947;SDS011;9099;47.958;11.366;2022-12-18T14:20:14;23.67;;;12.50;;
17947;SDS011;9099;47.958;11.366;2022-12-18T14:22:43;23.50;;;12.37;;
17947;SDS011;9099;47.958;11.366;2022-12-18T14:25:15;23.50;;;12.77;;
17947;SDS011;9099;47.958;11.366;2022-12-18T14:27:45;24.27;;;12.67;;
17947;SDS011;9099;47.958;11.366;2022-12-18T14:30:30;25.70;;;13.20;;
17947;SDS011;9099;47.958;11.366;2022-12-18T14:33:02;19.17;;;10.80;;
17947;SDS011;9099;47.958;11.366;2022-12-18T14:35:31;19.40;;;10.87;;
17947;SDS011;9099;47.958;11.366;2022-12-18T14:40:54;22.70;;;11.47;;
17947;SDS011;9099;47.958;11.366;2022-12-18T14:43:22;21.63;;;11.70;;
17947;SDS011;9099;47.958;11.366;2022-12-18T14:45:50;22.83;;;11.00;;
17947;SDS011;9099;47.958;11.366;2022-12-18T14:48:19;23.77;;;11.97;;
17947;SDS011;9099;47.958;11.366;2022-12-18T14:50:54;20.93;;;11.70;;
17947;SDS011;9099;47.958;11.366;2022-12-18T14:53:23;21.30;;;11.83;;
17947;SDS011;9099;47.958;11.366;2022-12-18T14:55:54;22.60;;;11.07;;